Time;durP1;ratioP1;P1;durP2;ratioP2;P2;SDS_P1;SDS_P2;PMS_P1;PMS_P2;Temp;Humidity;BMP_temperature;BMP_pressure;BME280_temperature;BME280_humidity;BME280_pressure;Samples;Min_cycle;Max_cycle;Signal;HPM_P1;HPM_P2
2022/05/01 00:01:35;;;;;;;35.53;32.13;;;10.50;66.00;;;;;;4988092;28;20992;-83
2022/05/01 00:04:00;;;;;;;35.37;32.27;;;10.50;66.60;;;;;;4986504;28;20182;-83
2022/05/01 00:06:26;;;;;;;36.63;33.47;;;10.60;66.20;;;;;;4987082;28;20513;-83
2022/05/01 00:08:52;;;;;;;34.00;31.00;;;10.60;66.00;;;;;;4988069;28;20221;-83
2022/05/01 00:11:17;;;;;;;34.57;31.47;;;10.60;65.90;;;;;;4987973;28;20576;-83
2022/05/01 00:13:46;;;;;;;36.00;32.47;;;10.60;65.80;;;;;;4988141;28;20254;-87
2022/05/01 00:16:12;;;;;;;38.10;34.70;;;10.70;66.20;;;;;;4991054;28;20259;-84
2022/05/01 00:18:38;;;;;;;35.83;32.60;;;10.70;65.10;;;;;;4981068;28;20439;-84
2022/05/01 00:21:04;;;;;;;37.20;33.70;;;10.70;65.30;;;;;;4988675;28;20416;-84
2022/05/01 00:23:30;;;;;;;35.07;31.97;;;10.60;65.90;;;;;;4989810;28;20428;-83
2022/05/01 00:25:57;;;;;;;28.67;25.67;;;10.50;67.10;;;;;;4990469;28;20474;-82
2022/05/01 00:28:23;;;;;;;36.50;33.20;;;10.50;68.00;;;;;;4990756;28;20625;-82
2022/05/01 00:30:49;;;;;;;34.20;31.17;;;10.40;67.90;;;;;;4990974;28;20463;-83
2022/05/01 00:38:43;;;;;;;36.73;33.53;;;10.30;68.30;;;;;;5008736;28;20419;-82
2022/05/01 00:41:11;;;;;;;34.87;31.70;;;10.40;69.00;;;;;;4993276;28;20420;-82
2022/05/01 00:44:03;;;;;;;39.30;35.60;;;10.40;68.00;;;;;;4995240;28;20614;-82
2022/05/01 00:46:30;;;;;;;37.60;33.80;;;10.50;67.90;;;;;;4994910;28;20471;-83
2022/05/01 00:48:57;;;;;;;37.77;34.43;;;10.60;65.70;;;;;;4994470;28;20982;-82
2022/05/01 00:51:24;;;;;;;39.70;35.73;;;10.60;66.30;;;;;;4994333;28;20416;-82
2022/05/01 00:53:51;;;;;;;39.40;35.80;;;10.60;66.70;;;;;;4994951;28;20424;-84
2022/05/01 00:56:17;;;;;;;37.27;33.83;;;10.50;65.90;;;;;;5011277;28;20412;-82
2022/05/01 00:58:47;;;;;;;37.53;34.03;;;10.50;66.90;;;;;;4994129;28;20499;-83
2022/05/01 01:01:14;;;;;;;40.30;36.30;;;10.60;66.60;;;;;;4993344;28;20440;-83
2022/05/01 01:03:40;;;;;;;38.33;34.73;;;10.50;66.30;;;;;;4994408;28;20444;-83
2022/05/01 01:06:06;;;;;;;38.53;35.03;;;10.50;66.60;;;;;;4994251;28;20432;-83
2022/05/01 01:08:32;;;;;;;37.97;34.60;;;10.40;66.50;;;;;;4994895;28;20259;-83
2022/05/01 01:10:58;;;;;;;37.47;34.00;;;10.40;68.00;;;;;;4994149;28;20515;-82
2022/05/01 01:13:28;;;;;;;38.43;34.73;;;10.30;67.70;;;;;;4994065;28;20789;-82
2022/05/01 01:15:54;;;;;;;38.47;34.97;;;10.40;67.80;;;;;;4993816;28;20412;-83
2022/05/01 01:18:21;;;;;;;35.37;32.00;;;10.40;67.30;;;;;;4994485;28;20783;-83
2022/05/01 01:20:46;;;;;;;36.70;33.40;;;10.40;68.10;;;;;;4993808;28;20456;-83
2022/05/01 01:23:14;;;;;;;38.03;34.50;;;10.40;68.10;;;;;;4993933;28;20463;-83
2022/05/01 01:25:40;;;;;;;38.60;35.00;;;10.50;67.40;;;;;;4993523;28;20185;-83
2022/05/01 01:28:08;;;;;;;41.20;37.30;;;10.50;66.90;;;;;;4993830;28;20601;-82
2022/05/01 01:33:19;;;;;;;40.13;36.27;;;10.50;64.70;;;;;;5011494;28;20415;-82
2022/05/01 01:35:48;;;;;;;38.57;35.00;;;10.40;66.60;;;;;;4993636;28;20424;-83
2022/05/01 01:38:14;;;;;;;39.53;35.83;;;10.40;67.10;;;;;;4993397;28;20489;-82
2022/05/01 01:40:57;;;;;;;38.80;35.00;;;10.50;66.30;;;;;;4993806;28;20412;-83
2022/05/01 01:43:27;;;;;;;37.10;33.60;;;10.60;65.40;;;;;;4993057;28;20200;-83
2022/05/01 01:45:54;;;;;;;37.13;33.87;;;10.50;65.90;;;;;;4993213;28;20927;-83
2022/05/01 01:48:21;;;;;;;37.13;33.83;;;10.50;65.80;;;;;;4993684;28;20986;-83
2022/05/01 01:50:58;;;;;;;38.90;35.30;;;10.50;65.70;;;;;;5011359;28;20408;-83
2022/05/01 01:53:24;;;;;;;36.77;33.53;;;10.50;64.80;;;;;;4993035;28;20455;-83
2022/05/01 01:55:50;;;;;;;37.93;34.43;;;10.50;65.90;;;;;;4994221;28;20409;-83
2022/05/01 01:58:16;;;;;;;41.40;37.60;;;10.40;65.70;;;;;;4994264;28;20435;-83
2022/05/01 02:00:42;;;;;;;38.13;34.73;;;10.40;66.00;;;;;;4993981;28;20955;-83
2022/05/01 02:03:07;;;;;;;36.10;33.10;;;10.50;65.50;;;;;;4994432;28;20714;-83
2022/05/01 02:05:34;;;;;;;36.30;33.30;;;10.50;64.50;;;;;;4994348;28;20181;-82
2022/05/01 02:08:01;;;;;;;36.80;33.33;;;10.60;64.60;;;;;;4993430;28;20260;-82
2022/05/01 02:10:27;;;;;;;35.50;32.00;;;10.60;64.10;;;;;;4994292;28;20922;-83
2022/05/01 02:12:54;;;;;;;36.10;32.90;;;10.60;64.10;;;;;;4993831;28;20514;-83
2022/05/01 02:15:19;;;;;;;35.97;32.63;;;10.50;64.30;;;;;;4993530;28;21019;-83
2022/05/01 02:17:46;;;;;;;36.27;33.07;;;10.50;65.00;;;;;;4994440;28;20515;-83
2022/05/01 02:20:12;;;;;;;38.33;34.87;;;10.50;64.50;;;;;;4993743;28;20475;-83
2022/05/01 02:22:41;;;;;;;36.77;33.17;;;10.50;65.10;;;;;;5011959;28;20908;-83
2022/05/01 02:25:07;;;;;;;36.97;33.73;;;10.50;65.00;;;;;;4993738;28;20424;-83
2022/05/01 02:27:34;;;;;;;38.20;34.80;;;10.40;65.30;;;;;;4993583;28;20503;-83
2022/05/01 02:30:00;;;;;;;36.23;33.20;;;10.40;65.40;;;;;;5011140;28;20743;-83
2022/05/01 02:32:25;;;;;;;34.63;31.47;;;10.40;64.70;;;;;;4993591;28;20920;-83
2022/05/01 02:34:51;;;;;;;38.57;35.10;;;10.30;66.00;;;;;;5011559;28;20441;-82
2022/05/01 02:37:17;;;;;;;36.00;32.80;;;10.40;64.80;;;;;;4994184;28;20185;-83
2022/05/01 02:39:42;;;;;;;37.87;34.57;;;10.40;64.70;;;;;;4993744;28;20537;-83
2022/05/01 02:42:08;;;;;;;36.37;33.37;;;10.30;66.10;;;;;;4993707;28;20558;-83
2022/05/01 02:44:34;;;;;;;37.17;33.87;;;10.30;65.20;;;;;;4993858;28;20185;-83
2022/05/01 02:47:00;;;;;;;36.70;33.40;;;10.20;66.10;;;;;;4993670;28;21051;-82
2022/05/01 02:49:25;;;;;;;38.70;34.70;;;10.40;65.20;;;;;;4993791;28;20642;-84
2022/05/01 02:51:53;;;;;;;37.50;34.07;;;10.30;67.00;;;;;;5011324;28;20649;-83
2022/05/01 02:54:21;;;;;;;35.53;32.20;;;10.30;66.20;;;;;;4993310;28;20181;-83
2022/05/01 02:56:49;;;;;;;37.77;34.30;;;10.30;66.00;;;;;;4993779;28;20893;-83
2022/05/01 02:59:15;;;;;;;36.93;33.53;;;10.30;65.20;;;;;;4993711;28;20420;-82
2022/05/01 03:01:41;;;;;;;36.90;33.47;;;10.30;65.40;;;;;;4993760;28;20551;-83
2022/05/01 03:04:07;;;;;;;38.97;35.47;;;10.40;65.50;;;;;;4993334;28;20968;-82
2022/05/01 03:06:34;;;;;;;37.47;34.27;;;10.40;64.50;;;;;;4994321;28;20185;-83
2022/05/01 03:09:00;;;;;;;38.83;34.97;;;10.30;64.80;;;;;;4994967;28;20499;-83
2022/05/01 03:11:26;;;;;;;39.37;35.37;;;10.20;65.10;;;;;;4995305;28;20420;-79
2022/05/01 03:13:52;;;;;;;37.90;34.43;;;10.30;64.70;;;;;;4994878;28;20439;-79
2022/05/01 03:16:18;;;;;;;37.67;34.30;;;10.30;64.90;;;;;;4994014;28;20242;-79
2022/05/01 03:24:11;;;;;;;38.37;34.97;;;10.30;63.80;;;;;;5010248;28;20423;-83
2022/05/01 03:26:38;;;;;;;39.20;35.70;;;10.30;64.40;;;;;;4993442;28;20424;-83
2022/05/01 03:29:03;;;;;;;37.07;33.67;;;10.20;64.90;;;;;;4993030;28;20236;-83
2022/05/01 03:31:29;;;;;;;37.33;33.90;;;10.20;65.30;;;;;;4992614;28;20456;-83
2022/05/01 03:33:55;;;;;;;38.87;34.77;;;10.20;65.40;;;;;;4993264;28;20182;-83
2022/05/01 03:36:21;;;;;;;40.27;36.13;;;10.10;64.90;;;;;;4992989;28;20208;-83
2022/05/01 03:38:47;;;;;;;40.20;35.67;;;10.10;65.50;;;;;;4993339;28;20420;-83
2022/05/01 03:41:15;;;;;;;40.57;36.80;;;10.10;65.50;;;;;;4993312;28;20181;-83
2022/05/01 03:43:41;;;;;;;42.17;38.10;;;10.10;65.80;;;;;;4993725;28;20493;-84
2022/05/01 03:46:07;;;;;;;39.17;35.33;;;10.10;65.60;;;;;;4993464;28;20432;-83
2022/05/01 03:48:32;;;;;;;39.37;35.83;;;10.10;66.10;;;;;;4993853;28;20468;-82
2022/05/01 03:50:59;;;;;;;40.13;36.00;;;10.00;66.50;;;;;;4994161;28;20428;-83
2022/05/01 03:53:26;;;;;;;41.17;37.37;;;10.10;66.90;;;;;;4994671;28;20188;-83
2022/05/01 03:56:10;;;;;;;41.67;37.60;;;10.00;66.80;;;;;;5012366;28;20438;-83
2022/05/01 03:58:36;;;;;;;40.03;36.40;;;10.00;66.50;;;;;;4994338;28;20444;-83
2022/05/01 04:01:02;;;;;;;42.37;38.20;;;10.10;66.60;;;;;;4989985;28;20477;-83
2022/05/01 04:03:28;;;;;;;42.37;38.17;;;10.10;66.10;;;;;;4987113;28;20248;-82
2022/05/01 04:05:54;;;;;;;43.10;38.67;;;10.10;65.90;;;;;;4980886;28;20554;-82
2022/05/01 04:08:20;;;;;;;41.33;37.17;;;10.10;66.20;;;;;;4993647;28;20462;-82
2022/05/01 04:10:46;;;;;;;40.67;36.40;;;10.10;65.10;;;;;;4991412;28;20830;-80
2022/05/01 04:13:13;;;;;;;39.70;35.93;;;10.00;66.10;;;;;;4984668;28;20523;-82
2022/05/01 04:15:40;;;;;;;38.80;34.77;;;10.10;66.50;;;;;;4975135;28;20224;-83
2022/05/01 04:18:08;;;;;;;42.00;38.13;;;10.00;66.70;;;;;;4975848;28;20425;-81
2022/05/01 04:20:35;;;;;;;41.37;37.30;;;10.10;65.50;;;;;;4975350;28;20475;-82
2022/05/01 04:23:03;;;;;;;39.93;36.23;;;10.10;65.60;;;;;;4975514;28;20457;-82
2022/05/01 04:25:30;;;;;;;38.00;34.53;;;10.10;66.20;;;;;;4975353;28;20421;-81
2022/05/01 04:28:04;;;;;;;42.43;38.00;;;10.20;65.30;;;;;;4975670;28;20468;-82
2022/05/01 04:30:33;;;;;;;38.47;34.87;;;10.10;65.30;;;;;;4975460;28;20965;-81
2022/05/01 04:33:04;;;;;;;41.93;38.00;;;10.20;64.50;;;;;;4992613;28;20413;-82
2022/05/01 04:35:35;;;;;;;38.10;34.77;;;10.20;64.70;;;;;;4975418;28;20451;-81
2022/05/01 04:38:01;;;;;;;38.80;34.97;;;10.20;64.60;;;;;;4975198;28;20453;-83
2022/05/01 04:40:34;;;;;;;40.00;36.27;;;10.20;64.70;;;;;;4974871;28;20479;-82
2022/05/01 04:43:11;;;;;;;38.27;35.00;;;10.20;65.10;;;;;;4975443;28;20425;-81
2022/05/01 04:45:38;;;;;;;37.07;33.80;;;10.20;65.00;;;;;;4975475;28;20417;-82
2022/05/01 04:48:05;;;;;;;38.03;34.53;;;10.10;65.30;;;;;;4975075;28;20457;-81
2022/05/01 04:50:31;;;;;;;39.42;35.38;;;10.00;65.50;;;;;;4992117;28;20420;-81
2022/05/01 04:53:00;;;;;;;39.07;35.43;;;10.10;66.00;;;;;;4975212;28;20520;-82
2022/05/01 04:55:25;;;;;;;37.57;34.23;;;10.10;65.60;;;;;;4990456;28;20478;-81
2022/05/01 04:57:51;;;;;;;38.60;34.80;;;10.10;65.40;;;;;;4979808;28;20432;-82
2022/05/01 05:00:19;;;;;;;33.90;31.00;;;10.00;66.10;;;;;;4981837;28;20197;-81
2022/05/01 05:02:48;;;;;;;37.20;33.80;;;10.10;65.90;;;;;;4974692;28;20185;-81
2022/05/01 05:05:15;;;;;;;37.77;34.47;;;10.10;65.40;;;;;;4974677;28;20909;-80
2022/05/01 05:07:41;;;;;;;37.17;33.47;;;10.00;65.80;;;;;;4977510;28;20432;-84
2022/05/01 05:10:08;;;;;;;38.47;34.80;;;10.10;65.50;;;;;;4975765;28;20501;-84
2022/05/01 05:12:36;;;;;;;36.27;32.97;;;10.10;66.20;;;;;;4974351;28;20468;-85
2022/05/01 05:15:04;;;;;;;37.57;34.37;;;10.10;66.80;;;;;;4974008;28;20429;-81
2022/05/01 05:17:31;;;;;;;38.03;34.43;;;10.20;65.00;;;;;;4991075;28;20424;-81
2022/05/01 05:19:57;;;;;;;38.10;34.27;;;10.20;64.50;;;;;;4994287;28;20443;-82
2022/05/01 05:22:23;;;;;;;40.20;36.40;;;10.10;65.20;;;;;;4994031;28;20765;-83
2022/05/01 05:24:49;;;;;;;38.17;34.97;;;10.10;65.50;;;;;;4994343;28;20408;-82
2022/05/01 05:27:15;;;;;;;39.93;36.53;;;10.00;64.80;;;;;;4997473;28;20260;-81
2022/05/01 05:29:41;;;;;;;39.00;35.67;;;10.20;64.70;;;;;;4997855;28;20220;-82
2022/05/01 05:32:07;;;;;;;39.90;36.00;;;10.20;65.00;;;;;;4997257;28;20629;-82
2022/05/01 05:34:33;;;;;;;36.43;33.33;;;10.20;65.10;;;;;;4997070;28;20600;-82
2022/05/01 05:37:00;;;;;;;38.97;34.97;;;10.20;64.90;;;;;;4995262;28;20483;-81
2022/05/01 05:39:25;;;;;;;38.80;34.83;;;10.20;64.80;;;;;;4991063;28;20432;-81
2022/05/01 05:41:51;;;;;;;40.13;36.67;;;10.30;64.90;;;;;;4988983;28;20424;-80
2022/05/01 05:44:17;;;;;;;38.77;35.40;;;10.30;64.40;;;;;;4988115;28;20209;-80
2022/05/01 05:46:42;;;;;;;39.27;35.77;;;10.30;64.10;;;;;;4983422;28;20189;-81
2022/05/01 05:49:08;;;;;;;39.07;35.40;;;10.30;64.70;;;;;;4988604;28;20201;-83
2022/05/01 05:51:42;;;;;;;40.93;37.27;;;10.30;64.40;;;;;;4997561;28;20181;-84
2022/05/01 05:54:08;;;;;;;38.70;35.17;;;10.30;63.60;;;;;;4981082;28;20261;-83
2022/05/01 05:56:45;;;;;;;39.10;35.70;;;10.30;64.80;;;;;;4978154;28;20500;-84
2022/05/01 05:59:15;;;;;;;40.20;36.53;;;10.30;64.00;;;;;;4978146;28;20180;-84
2022/05/01 06:01:56;;;;;;;39.57;36.13;;;10.30;63.80;;;;;;4977921;28;20966;-85
2022/05/01 06:04:30;;;;;;;38.20;35.00;;;10.30;64.60;;;;;;4977976;28;20503;-84
2022/05/01 06:06:56;;;;;;;37.40;34.10;;;10.30;64.50;;;;;;4978167;28;20826;-82
2022/05/01 06:09:21;;;;;;;40.97;37.00;;;10.40;64.30;;;;;;4977622;28;20460;-84
2022/05/01 06:11:47;;;;;;;39.37;36.00;;;10.40;63.30;;;;;;4977765;28;20191;-83
2022/05/01 06:14:12;;;;;;;39.17;35.60;;;10.40;63.20;;;;;;4995053;28;20185;-83
2022/05/01 06:16:38;;;;;;;39.57;36.00;;;10.50;62.80;;;;;;4977822;28;20563;-84
2022/05/01 06:19:04;;;;;;;38.60;35.20;;;10.50;62.90;;;;;;4977800;28;20189;-84
2022/05/01 06:21:30;;;;;;;38.27;34.83;;;10.50;62.50;;;;;;4984954;28;20486;-78
2022/05/01 06:23:56;;;;;;;39.83;36.03;;;10.50;61.90;;;;;;4996927;28;20825;-77
2022/05/01 06:26:21;;;;;;;42.23;38.40;;;10.40;62.70;;;;;;4997177;28;20189;-84
2022/05/01 06:28:47;;;;;;;38.63;35.33;;;10.40;62.30;;;;;;4996507;28;20216;-83
2022/05/01 06:31:14;;;;;;;40.73;36.83;;;10.50;62.60;;;;;;4996460;28;20269;-83
2022/05/01 06:33:41;;;;;;;38.50;35.40;;;10.50;62.90;;;;;;4986795;28;20209;-85
2022/05/01 06:36:07;;;;;;;37.87;34.57;;;10.40;63.00;;;;;;4977208;28;20952;-85
2022/05/01 06:38:33;;;;;;;39.20;35.60;;;10.50;63.30;;;;;;4988879;28;20432;-79
2022/05/01 06:41:01;;;;;;;36.13;33.13;;;10.60;62.50;;;;;;4985532;28;20425;-78
2022/05/01 06:43:27;;;;;;;39.00;35.60;;;10.50;62.50;;;;;;4998259;28;20268;-78
2022/05/01 06:45:53;;;;;;;35.63;32.70;;;10.60;62.00;;;;;;4980988;28;20516;-79
2022/05/01 06:48:18;;;;;;;36.53;33.37;;;10.60;61.60;;;;;;4984999;28;20301;-79
2022/05/01 06:50:44;;;;;;;38.67;35.47;;;10.60;63.10;;;;;;4987507;28;20256;-78
2022/05/01 06:53:10;;;;;;;38.80;35.40;;;10.50;62.70;;;;;;4987141;28;20177;-79
2022/05/01 06:55:35;;;;;;;40.20;36.33;;;10.60;61.60;;;;;;4981606;28;20638;-78
2022/05/01 06:58:01;;;;;;;37.17;34.10;;;10.60;60.80;;;;;;4984778;28;20182;-79
2022/05/01 07:00:26;;;;;;;39.40;36.10;;;10.70;61.70;;;;;;4988500;28;20327;-78
2022/05/01 07:02:54;;;;;;;36.77;33.80;;;10.70;62.30;;;;;;4980892;28;20634;-78
2022/05/01 07:05:20;;;;;;;36.80;33.77;;;10.60;61.60;;;;;;4983286;28;20189;-79
2022/05/01 07:07:48;;;;;;;37.03;33.90;;;10.80;61.80;;;;;;5003052;28;20503;-79
2022/05/01 07:10:14;;;;;;;38.00;34.77;;;10.70;61.60;;;;;;4985260;28;20439;-80
2022/05/01 07:12:40;;;;;;;38.40;35.13;;;10.70;62.40;;;;;;4978503;28;20413;-77
2022/05/01 07:15:06;;;;;;;36.03;33.10;;;10.80;61.80;;;;;;4975057;28;20181;-78
2022/05/01 07:17:33;;;;;;;36.13;33.33;;;11.00;60.90;;;;;;4975611;28;20245;-78
2022/05/01 07:19:59;;;;;;;36.00;32.90;;;11.10;60.70;;;;;;4975022;28;20417;-78
2022/05/01 07:22:25;;;;;;;35.37;32.70;;;10.90;60.20;;;;;;4975212;28;20425;-79
2022/05/01 07:24:50;;;;;;;36.03;33.17;;;11.00;61.70;;;;;;4975132;28;20503;-78
2022/05/01 07:27:16;;;;;;;32.80;30.30;;;11.10;60.80;;;;;;4974776;28;20433;-77
2022/05/01 07:29:42;;;;;;;36.63;33.27;;;11.00;59.40;;;;;;4975260;28;20850;-80
2022/05/01 07:32:09;;;;;;;36.63;33.67;;;11.10;60.50;;;;;;4977589;28;20690;-78
2022/05/01 07:34:34;;;;;;;35.83;32.93;;;11.10;60.20;;;;;;4984784;28;20462;-78
2022/05/01 07:37:00;;;;;;;35.53;32.77;;;11.10;60.50;;;;;;4982157;28;20775;-78
2022/05/01 07:39:26;;;;;;;35.83;33.23;;;11.20;59.20;;;;;;4993798;28;20888;-77
2022/05/01 07:41:51;;;;;;;30.73;28.23;;;11.20;59.70;;;;;;4994259;28;20185;-78
2022/05/01 07:44:17;;;;;;;34.03;31.60;;;11.30;58.70;;;;;;4979309;28;20902;-78
2022/05/01 07:46:45;;;;;;;34.40;31.50;;;11.30;59.00;;;;;;4974798;28;20185;-78
2022/05/01 07:49:11;;;;;;;33.07;30.30;;;11.30;58.50;;;;;;4974445;28;20220;-78
2022/05/01 07:51:37;;;;;;;33.00;30.10;;;11.20;58.50;;;;;;4974932;28;20766;-77
2022/05/01 07:54:04;;;;;;;33.77;31.17;;;11.20;58.90;;;;;;4974700;28;20841;-78
2022/05/01 07:56:32;;;;;;;31.83;29.47;;;11.20;58.00;;;;;;4974844;28;20754;-78
2022/05/01 07:58:58;;;;;;;34.63;32.03;;;11.30;58.10;;;;;;4975138;28;20917;-78
2022/05/01 08:01:24;;;;;;;34.37;31.67;;;11.30;58.90;;;;;;4977083;28;20445;-79
2022/05/01 08:06:35;;;;;;;32.90;30.47;;;11.20;58.50;;;;;;5003253;28;20419;-78
2022/05/01 08:09:03;;;;;;;33.00;30.57;;;11.20;58.90;;;;;;5008446;28;20463;-77
2022/05/01 08:11:31;;;;;;;31.37;29.17;;;11.40;58.60;;;;;;4993874;28;20424;-77
2022/05/01 08:13:57;;;;;;;31.50;28.97;;;11.40;57.30;;;;;;5011050;28;20516;-77
2022/05/01 08:16:24;;;;;;;32.47;30.10;;;11.50;57.30;;;;;;4988637;28;20927;-78
2022/05/01 08:21:36;;;;;;;31.80;29.53;;;11.70;56.50;;;;;;5012297;28;20783;-77
2022/05/01 08:24:03;;;;;;;30.77;28.47;;;11.80;56.60;;;;;;4994084;28;20435;-78
2022/05/01 08:26:31;;;;;;;31.53;29.20;;;11.80;56.90;;;;;;4994104;28;20424;-82
2022/05/01 08:29:19;;;;;;;30.23;28.10;;;11.80;55.50;;;;;;4994385;28;20864;-82
2022/05/01 08:31:51;;;;;;;33.17;30.77;;;12.00;54.50;;;;;;4989662;28;20421;-83
2022/05/01 08:34:32;;;;;;;29.63;27.53;;;12.00;52.90;;;;;;4984847;28;20804;-83
2022/05/01 08:37:03;;;;;;;31.20;28.93;;;12.10;52.70;;;;;;4996064;28;20473;-78
2022/05/01 08:39:28;;;;;;;29.53;27.40;;;12.10;52.90;;;;;;4986278;28;20431;-83
2022/05/01 08:41:55;;;;;;;29.20;27.00;;;12.10;52.70;;;;;;4993614;28;20412;-84
2022/05/01 08:44:47;;;;;;;30.57;28.57;;;12.30;52.00;;;;;;4985175;28;20173;-84
2022/05/01 08:47:23;;;;;;;31.07;28.90;;;12.20;51.40;;;;;;4988169;28;20512;-83
2022/05/01 08:49:55;;;;;;;30.17;28.07;;;12.30;50.80;;;;;;4998214;28;20490;-83
2022/05/01 08:52:22;;;;;;;32.00;29.87;;;12.30;50.60;;;;;;4991053;28;20429;-83
2022/05/01 08:54:49;;;;;;;31.67;29.57;;;12.20;48.80;;;;;;4994005;28;20424;-84
2022/05/01 08:57:23;;;;;;;33.10;30.77;;;12.20;50.70;;;;;;4992048;28;20442;-85
2022/05/01 08:59:53;;;;;;;33.37;31.07;;;12.50;50.40;;;;;;4987836;28;20428;-84
2022/05/01 09:02:19;;;;;;;31.77;29.10;;;12.50;50.00;;;;;;4978246;28;20453;-84
2022/05/01 09:04:46;;;;;;;29.03;26.93;;;12.50;51.00;;;;;;4995773;28;20908;-85
2022/05/01 09:07:24;;;;;;;29.40;27.07;;;12.60;50.90;;;;;;4978966;28;20447;-82
2022/05/01 09:09:51;;;;;;;28.90;26.40;;;12.80;49.60;;;;;;4996437;28;20460;-82
2022/05/01 09:15:04;;;;;;;27.10;25.10;;;12.50;50.80;;;;;;4996186;28;20519;-83
2022/05/01 09:17:29;;;;;;;28.77;26.77;;;12.60;51.60;;;;;;4991981;28;20443;-82
2022/05/01 09:20:11;;;;;;;28.13;25.97;;;12.40;50.60;;;;;;4993022;28;20476;-84
2022/05/01 09:22:51;;;;;;;26.63;24.73;;;12.50;51.30;;;;;;4994724;28;20284;-83
2022/05/01 09:25:18;;;;;;;27.87;25.73;;;12.60;50.70;;;;;;4993999;28;20429;-82
2022/05/01 09:27:43;;;;;;;28.00;25.90;;;12.60;51.60;;;;;;4994617;28;20433;-80
2022/05/01 09:30:21;;;;;;;28.27;26.10;;;12.70;49.20;;;;;;4994758;28;20524;-85
2022/05/01 09:32:47;;;;;;;29.27;27.00;;;13.00;49.90;;;;;;4994710;28;20185;-84
2022/05/01 09:35:29;;;;;;;28.07;26.07;;;13.10;46.30;;;;;;4994101;28;20416;-84
2022/05/01 09:38:16;;;;;;;27.90;25.70;;;13.20;50.90;;;;;;4995004;28;20968;-83
2022/05/01 09:40:48;;;;;;;26.60;24.50;;;13.20;47.20;;;;;;4997682;28;20413;-84
2022/05/01 09:43:41;;;;;;;27.63;25.73;;;13.40;45.80;;;;;;4994353;28;20413;-84
2022/05/01 09:46:19;;;;;;;24.97;22.90;;;13.70;53.10;;;;;;4994477;28;20940;-84
2022/05/01 09:49:00;;;;;;;24.73;22.83;;;14.10;53.50;;;;;;4995832;28;20452;-84
2022/05/01 09:51:28;;;;;;;35.20;32.67;;;14.10;45.20;;;;;;4994336;28;20476;-85
2022/05/01 09:53:55;;;;;;;24.73;23.13;;;14.50;51.90;;;;;;4994343;28;20513;-85
2022/05/01 09:56:21;;;;;;;21.53;19.80;;;14.70;48.50;;;;;;5003459;28;20416;-86
2022/05/01 09:58:56;;;;;;;30.17;27.87;;;15.30;49.10;;;;;;4990986;28;20439;-86
2022/05/01 10:01:22;;;;;;;27.47;25.47;;;15.30;43.40;;;;;;5005494;28;20523;-85
2022/05/01 10:03:50;;;;;;;26.40;24.30;;;15.10;40.40;;;;;;4977973;28;20449;-86
2022/05/01 10:06:16;;;;;;;26.87;24.97;;;15.40;50.40;;;;;;4989475;28;20413;-86
2022/05/01 10:08:46;;;;;;;27.03;25.20;;;15.40;40.70;;;;;;4977870;28;20457;-86
2022/05/01 10:11:17;;;;;;;25.30;23.30;;;15.40;41.10;;;;;;4986592;28;20919;-85
2022/05/01 10:13:46;;;;;;;25.30;23.60;;;15.90;50.60;;;;;;4989185;28;20782;-88
2022/05/01 10:16:16;;;;;;;27.67;25.37;;;15.80;41.50;;;;;;4977783;28;20409;-87
2022/05/01 10:18:46;;;;;;;32.27;29.83;;;15.30;38.20;;;;;;4994794;28;20413;-87
2022/05/01 10:21:17;;;;;;;26.53;24.73;;;15.40;39.90;;;;;;4992775;28;20432;-88
2022/05/01 10:23:44;;;;;;;24.97;23.27;;;15.10;47.50;;;;;;4996369;28;20421;-88
2022/05/01 10:26:30;;;;;;;26.87;24.73;;;15.40;37.10;;;;;;4982385;28;20427;-84
2022/05/01 10:29:07;;;;;;;25.47;23.60;;;15.00;37.70;;;;;;4990514;28;20463;-81
2022/05/01 10:35:07;;;;;;;25.27;23.00;;;15.00;49.10;;;;;;4994971;28;20455;-79
2022/05/01 10:37:52;;;;;;;25.00;23.30;;;15.70;44.20;;;;;;4991257;28;20418;-82
2022/05/01 10:40:18;;;;;;;24.40;22.70;;;15.60;37.80;;;;;;4979891;28;20535;-80
2022/05/01 10:42:52;;;;;;;26.03;24.23;;;15.40;39.00;;;;;;4988338;28;20504;-83
2022/05/01 10:45:21;;;;;;;26.90;24.90;;;15.50;36.70;;;;;;4982261;28;20427;-80
2022/05/01 10:47:48;;;;;;;26.13;24.33;;;15.70;36.70;;;;;;4993192;28;20428;-79
2022/05/01 10:50:26;;;;;;;25.00;23.40;;;15.30;35.00;;;;;;4996395;28;20439;-80
2022/05/01 10:53:02;;;;;;;25.67;23.37;;;15.50;38.90;;;;;;5014404;28;20395;-79
2022/05/01 10:55:40;;;;;;;25.77;24.03;;;15.80;50.70;;;;;;4996267;28;20996;-79
2022/05/01 10:58:30;;;;;;;26.13;24.30;;;15.70;47.40;;;;;;4987824;28;20559;-79
2022/05/01 11:00:57;;;;;;;25.33;23.33;;;15.50;42.70;;;;;;4990920;28;20448;-79
2022/05/01 11:03:32;;;;;;;26.07;24.13;;;15.70;48.30;;;;;;4996435;28;20460;-81
2022/05/01 11:06:04;;;;;;;25.90;24.30;;;15.30;51.30;;;;;;4992541;28;20418;-79
2022/05/01 11:08:38;;;;;;;23.43;21.87;;;15.10;41.10;;;;;;4983923;28;20456;-80
2022/05/01 11:11:11;;;;;;;23.53;22.10;;;15.40;47.80;;;;;;4976697;28;20421;-80
2022/05/01 11:13:41;;;;;;;25.07;23.27;;;15.40;45.00;;;;;;4976736;28;20945;-79
2022/05/01 11:16:08;;;;;;;28.43;26.13;;;15.40;45.40;;;;;;4990245;28;20412;-80
2022/05/01 11:18:40;;;;;;;27.00;25.20;;;15.50;38.40;;;;;;4996067;28;20425;-79
2022/05/01 11:21:26;;;;;;;26.87;24.87;;;15.20;37.20;;;;;;4995419;28;20467;-79
2022/05/01 11:24:01;;;;;;;26.77;25.03;;;15.10;44.80;;;;;;4994763;28;20835;-83
2022/05/01 11:26:28;;;;;;;27.27;25.43;;;15.40;40.00;;;;;;4996194;28;20427;-84
2022/05/01 11:29:13;;;;;;;26.07;24.37;;;15.20;38.80;;;;;;4995315;28;20467;-84
2022/05/01 11:31:42;;;;;;;28.17;26.40;;;15.10;38.50;;;;;;4992189;28;20412;-85
2022/05/01 11:34:21;;;;;;;25.20;23.50;;;15.30;44.00;;;;;;4995828;28;20412;-85
2022/05/01 11:36:50;;;;;;;24.77;23.27;;;15.50;36.30;;;;;;4987458;28;20427;-84
2022/05/01 11:39:16;;;;;;;24.53;22.83;;;15.60;44.30;;;;;;4990641;28;20848;-85
2022/05/01 11:41:42;;;;;;;25.43;23.77;;;16.00;40.20;;;;;;4992122;28;20470;-87
2022/05/01 11:44:22;;;;;;;25.47;23.77;;;15.80;36.60;;;;;;4995352;28;20235;-88
2022/05/01 11:46:48;;;;;;;25.13;23.33;;;16.10;40.90;;;;;;4995697;28;20515;-79
2022/05/01 11:49:14;;;;;;;24.87;23.17;;;16.10;38.50;;;;;;4995045;28;20546;-86
2022/05/01 11:51:40;;;;;;;26.23;24.43;;;16.00;37.80;;;;;;4994899;28;20180;-85
2022/05/01 11:54:08;;;;;;;24.80;23.30;;;16.20;35.30;;;;;;4994282;28;20495;-79
2022/05/01 12:04:47;;;;;;;26.43;24.33;;;16.60;34.90;;;;;;4998235;28;20466;-78
2022/05/01 12:07:21;;;;;;;24.70;23.10;;;16.10;33.30;;;;;;4983105;28;20916;-78
2022/05/01 12:09:48;;;;;;;24.03;22.20;;;15.90;32.90;;;;;;4995032;28;20236;-80
2022/05/01 12:12:19;;;;;;;25.53;23.43;;;15.50;34.90;;;;;;4995116;28;20409;-79
2022/05/01 12:14:47;;;;;;;25.87;24.17;;;15.20;33.80;;;;;;4994788;28;20417;-79
2022/05/01 12:17:20;;;;;;;24.87;23.30;;;15.10;33.40;;;;;;4994831;28;20431;-79
2022/05/01 12:19:50;;;;;;;25.60;23.90;;;14.80;35.70;;;;;;4995174;28;20789;-79
2022/05/01 12:22:17;;;;;;;25.23;23.73;;;14.80;35.70;;;;;;4994738;28;20404;-79
2022/05/01 12:24:45;;;;;;;25.60;23.80;;;14.80;36.60;;;;;;4994538;28;20430;-79
2022/05/01 12:27:18;;;;;;;25.00;23.40;;;15.00;34.30;;;;;;4994561;28;20409;-78
2022/05/01 12:29:49;;;;;;;30.70;28.77;;;14.90;34.50;;;;;;4994944;28;20467;-79
2022/05/01 12:32:16;;;;;;;26.67;24.90;;;15.00;34.10;;;;;;4994331;28;20470;-78
2022/05/01 12:34:44;;;;;;;26.07;24.07;;;15.10;33.20;;;;;;4995053;28;20424;-83
2022/05/01 12:37:18;;;;;;;27.40;25.50;;;15.10;34.80;;;;;;4998154;28;20421;-83
2022/05/01 12:40:10;;;;;;;24.03;22.43;;;15.00;34.70;;;;;;4999042;28;20920;-83
2022/05/01 12:45:37;;;;;;;26.33;24.67;;;15.10;36.00;;;;;;5016295;28;20950;-83
2022/05/01 12:48:05;;;;;;;26.47;24.67;;;15.30;36.20;;;;;;4990916;28;20786;-82
2022/05/01 12:50:43;;;;;;;25.67;23.97;;;15.30;35.10;;;;;;4998779;28;20444;-83
2022/05/01 12:53:29;;;;;;;24.93;23.30;;;15.40;35.00;;;;;;4984876;28;20413;-82
2022/05/01 12:56:02;;;;;;;25.17;23.53;;;15.50;33.30;;;;;;4993135;28;20952;-78
2022/05/01 12:58:32;;;;;;;25.17;23.60;;;15.40;34.90;;;;;;4984761;28;20820;-83
2022/05/01 13:01:02;;;;;;;24.27;22.67;;;15.30;33.50;;;;;;4999393;28;20448;-79
2022/05/01 13:03:38;;;;;;;27.83;26.13;;;15.40;33.80;;;;;;4978078;28;20443;-80
2022/05/01 13:06:12;;;;;;;25.30;23.67;;;15.20;34.10;;;;;;4988779;28;20415;-80
2022/05/01 13:09:04;;;;;;;23.23;21.67;;;15.40;34.00;;;;;;4994796;28;20554;-83
2022/05/01 13:11:32;;;;;;;23.00;21.60;;;15.70;34.90;;;;;;4998128;28;20412;-82
2022/05/01 13:14:09;;;;;;;24.83;23.20;;;15.90;32.70;;;;;;4997424;28;20432;-82